createdAt,value
2022-09-27T00:01:13.491Z,45.49
2022-09-27T00:03:41.549Z,45.43
2022-09-27T00:06:10.539Z,45.34
2022-09-27T00:08:38.770Z,45.42
2022-09-27T00:11:09.115Z,45.36
2022-09-27T00:13:37.001Z,45.79
2022-09-27T00:16:05.802Z,45.50
2022-09-27T00:18:35.197Z,45.24
2022-09-27T00:21:07.398Z,45.49
2022-09-27T00:23:36.697Z,45.33
2022-09-27T00:26:04.665Z,45.27
2022-09-27T00:28:32.558Z,45.60
2022-09-27T00:31:00.742Z,45.65
2022-09-27T00:33:28.764Z,46.00
2022-09-27T00:36:05.339Z,45.70
2022-09-27T00:38:33.199Z,45.76
2022-09-27T00:41:01.137Z,46.18
2022-09-27T00:43:44.068Z,46.26
2022-09-27T00:46:11.958Z,46.09
2022-09-27T00:48:39.918Z,46.43
2022-09-27T00:51:09.786Z,45.86
2022-09-27T00:53:40.041Z,46.04
2022-09-27T00:56:09.713Z,46.15
2022-09-27T00:58:38.974Z,46.13
2022-09-27T01:01:10.534Z,45.94
2022-09-27T01:03:42.065Z,46.04
2022-09-27T01:06:11.309Z,45.67
2022-09-27T01:08:39.406Z,45.65
2022-09-27T01:11:14.956Z,45.71
2022-09-27T01:13:46.703Z,45.65
2022-09-27T01:16:17.887Z,45.96
2022-09-27T01:18:50.058Z,45.71
2022-09-27T01:21:51.876Z,46.35
2022-09-27T01:24:42.246Z,46.04
2022-09-27T01:27:32.671Z,46.18
2022-09-27T01:30:14.849Z,46.07
2022-09-27T01:32:46.448Z,45.78
2022-09-27T01:35:17.203Z,46.08
2022-09-27T01:37:49.888Z,46.18
2022-09-27T01:40:19.759Z,46.05
2022-09-27T01:42:48.989Z,46.15
2022-09-27T01:45:21.173Z,45.91
2022-09-27T01:47:50.919Z,46.06
2022-09-27T01:50:20.410Z,45.82
2022-09-27T01:52:50.145Z,45.49
2022-09-27T01:55:18.515Z,45.51
2022-09-27T01:57:48.558Z,45.69
2022-09-27T02:00:16.475Z,45.66
2022-09-27T02:02:48.524Z,45.58
2022-09-27T02:05:17.974Z,45.86
2022-09-27T02:07:47.374Z,45.85
2022-09-27T02:10:16.994Z,46.00
2022-09-27T02:12:47.861Z,46.10
2022-09-27T02:15:16.652Z,45.62
2022-09-27T02:17:47.925Z,45.62
2022-09-27T02:20:19.200Z,45.33
2022-09-27T02:22:49.236Z,45.05
2022-09-27T02:25:21.743Z,45.46
2022-09-27T02:27:53.951Z,45.17
2022-09-27T02:30:22.014Z,45.41
2022-09-27T02:32:51.263Z,45.40
2022-09-27T02:35:20.847Z,45.46
2022-09-27T02:37:48.728Z,45.38
2022-09-27T02:40:17.001Z,45.45
2022-09-27T02:42:44.910Z,45.85
2022-09-27T02:45:13.054Z,45.46
2022-09-27T02:47:56.988Z,45.49
2022-09-27T02:50:55.920Z,45.16
2022-09-27T02:53:30.578Z,45.79
2022-09-27T02:56:01.787Z,45.51
2022-09-27T02:58:35.760Z,45.65
2022-09-27T03:01:06.185Z,45.87
2022-09-27T03:03:38.276Z,45.87
2022-09-27T03:06:08.087Z,45.83
2022-09-27T03:08:35.947Z,46.19
2022-09-27T03:11:03.815Z,46.27
2022-09-27T03:13:31.724Z,45.99
2022-09-27T03:16:01.720Z,46.25
2022-09-27T03:18:30.147Z,46.38
2022-09-27T03:20:59.415Z,46.42
2022-09-27T03:23:27.561Z,46.63
2022-09-27T03:25:55.431Z,46.72
2022-09-27T03:28:23.357Z,46.29
2022-09-27T03:30:51.285Z,46.57
2022-09-27T03:33:19.635Z,46.15
2022-09-27T03:35:48.028Z,46.12
2022-09-27T03:38:17.334Z,46.01
2022-09-27T03:40:45.186Z,46.42
2022-09-27T03:43:13.108Z,46.12
2022-09-27T03:45:41.419Z,46.31
2022-09-27T03:48:09.365Z,46.68
2022-09-27T03:50:37.311Z,46.62
2022-09-27T03:53:05.179Z,46.71
2022-09-27T03:55:34.646Z,46.73
2022-09-27T03:58:02.564Z,46.33
2022-09-27T04:00:32.669Z,46.68
2022-09-27T04:03:00.564Z,46.61
2022-09-27T04:05:28.969Z,46.61
2022-09-27T04:07:57.249Z,46.69
2022-09-27T04:10:25.508Z,47.05
2022-09-27T04:12:54.869Z,47.06
2022-09-27T04:15:22.861Z,46.82
2022-09-27T04:17:50.744Z,46.49
2022-09-27T04:20:18.799Z,46.52
2022-09-27T04:22:46.670Z,46.78
2022-09-27T04:25:14.716Z,46.81
2022-09-27T04:27:45.759Z,46.23
2022-09-27T04:30:15.457Z,46.72
2022-09-27T04:32:43.455Z,46.75
2022-09-27T04:35:28.614Z,47.31
2022-09-27T04:37:56.695Z,47.33
2022-09-27T04:40:24.723Z,47.14
2022-09-27T04:42:52.839Z,47.54
2022-09-27T04:45:22.205Z,47.57
2022-09-27T04:47:50.905Z,47.74
2022-09-27T04:50:20.132Z,47.50
2022-09-27T04:52:51.361Z,47.75
2022-09-27T04:55:19.413Z,47.59
2022-09-27T04:57:47.287Z,47.34
2022-09-27T05:00:15.949Z,47.35
2022-09-27T05:02:45.398Z,47.49
2022-09-27T05:05:13.445Z,47.65
2022-09-27T05:07:41.860Z,47.75
2022-09-27T05:10:10.313Z,47.68
2022-09-27T05:12:38.291Z,47.47
2022-09-27T05:15:07.097Z,47.35
2022-09-27T05:17:34.973Z,47.13
2022-09-27T05:20:04.480Z,47.15
2022-09-27T05:22:32.370Z,47.56
2022-09-27T05:25:00.254Z,47.42
2022-09-27T05:27:28.155Z,47.00
2022-09-27T05:29:57.060Z,47.43
2022-09-27T05:32:24.944Z,47.23
2022-09-27T05:34:53.677Z,47.50
2022-09-27T05:37:22.976Z,46.72
2022-09-27T05:39:51.033Z,46.71
2022-09-27T05:42:19.652Z,46.77
2022-09-27T05:44:47.651Z,46.72
2022-09-27T05:47:15.744Z,47.17
2022-09-27T05:49:43.687Z,47.07
2022-09-27T05:52:15.090Z,46.70
2022-09-27T05:54:46.130Z,46.66
2022-09-27T05:57:14.616Z,47.12
2022-09-27T05:59:42.617Z,47.17
2022-09-27T06:02:11.546Z,46.88
2022-09-27T06:04:39.589Z,47.07
2022-09-27T06:07:07.477Z,47.32
2022-09-27T06:09:35.497Z,47.01
2022-09-27T06:12:05.137Z,46.93
2022-09-27T06:14:35.082Z,47.19
2022-09-27T06:17:03.670Z,47.06
2022-09-27T06:19:31.971Z,47.25
2022-09-27T06:21:59.869Z,47.02
2022-09-27T06:24:27.741Z,47.47
2022-09-27T06:26:55.721Z,47.30
2022-09-27T06:29:25.297Z,47.37
2022-09-27T06:31:53.179Z,47.33
2022-09-27T06:34:21.141Z,47.50
2022-09-27T06:36:51.710Z,47.91
2022-09-27T06:39:19.838Z,47.85
2022-09-27T06:41:48.291Z,47.37
2022-09-27T06:44:16.201Z,47.21
2022-09-27T06:46:45.905Z,46.92
2022-09-27T06:49:13.905Z,46.84
2022-09-27T06:51:42.267Z,47.24
2022-09-27T06:54:10.239Z,46.89
2022-09-27T06:56:38.134Z,46.88
2022-09-27T06:59:23.357Z,47.05
2022-09-27T07:01:53.657Z,47.01
2022-09-27T07:04:21.766Z,46.49
2022-09-27T07:06:49.732Z,46.79
2022-09-27T07:09:17.747Z,46.72
2022-09-27T07:11:46.061Z,46.52
2022-09-27T07:14:14.338Z,46.61
2022-09-27T07:16:42.237Z,46.72
2022-09-27T07:19:13.590Z,46.48
2022-09-27T07:21:41.545Z,45.86
2022-09-27T07:24:09.658Z,46.27
2022-09-27T07:26:37.541Z,45.97
2022-09-27T07:29:05.420Z,46.20
2022-09-27T07:31:33.933Z,45.91
2022-09-27T07:34:01.886Z,45.92
2022-09-27T07:36:31.608Z,45.49
2022-09-27T07:39:00.612Z,45.56
2022-09-27T07:41:28.645Z,45.36
2022-09-27T07:43:57.308Z,45.66
2022-09-27T07:46:26.055Z,45.39
2022-09-27T07:48:54.299Z,45.32
2022-09-27T07:51:22.865Z,45.39
2022-09-27T07:53:52.475Z,44.82
2022-09-27T07:56:20.564Z,44.92
2022-09-27T07:58:48.489Z,44.88
2022-09-27T08:01:16.522Z,44.93
2022-09-27T08:03:44.636Z,44.42
2022-09-27T08:06:12.565Z,44.64
2022-09-27T08:08:40.594Z,44.37
2022-09-27T08:11:16.713Z,44.47
2022-09-27T08:13:44.670Z,44.49
2022-09-27T08:16:14.337Z,44.42
2022-09-27T08:18:43.102Z,44.35
2022-09-27T08:21:11.143Z,44.47
2022-09-27T08:23:39.214Z,44.61
2022-09-27T08:26:07.331Z,44.50
2022-09-27T08:28:37.816Z,44.96
2022-09-27T08:31:06.168Z,44.81
2022-09-27T08:33:39.114Z,44.66
2022-09-27T08:36:12.127Z,44.83
2022-09-27T08:38:40.133Z,45.46
2022-09-27T08:41:08.998Z,45.30
2022-09-27T08:43:42.712Z,45.37
2022-09-27T08:46:17.233Z,45.38
2022-09-27T08:48:45.311Z,45.09
2022-09-27T08:51:13.641Z,45.39
2022-09-27T08:53:43.049Z,45.74
2022-09-27T08:56:11.161Z,45.47
2022-09-27T08:58:42.076Z,45.35
2022-09-27T09:01:12.989Z,45.20
2022-09-27T09:03:41.435Z,45.20
2022-09-27T09:06:12.826Z,44.87
2022-09-27T09:08:50.721Z,44.63
2022-09-27T09:11:42.198Z,44.40
2022-09-27T09:14:27.510Z,44.45
2022-09-27T09:17:00.635Z,44.66
2022-09-27T09:19:45.975Z,44.44
2022-09-27T09:22:21.915Z,44.31
2022-09-27T09:24:56.824Z,44.55
2022-09-27T09:27:26.617Z,44.36
2022-09-27T09:30:07.104Z,44.03
2022-09-27T09:32:40.332Z,43.93
2022-09-27T09:35:08.922Z,43.77
2022-09-27T09:37:38.207Z,44.03
2022-09-27T09:40:09.270Z,43.83
2022-09-27T09:42:39.672Z,44.14
2022-09-27T09:45:16.161Z,44.22
2022-09-27T09:47:45.546Z,43.75
2022-09-27T09:50:17.471Z,43.86
2022-09-27T09:52:46.922Z,43.94
2022-09-27T09:55:19.211Z,43.66
2022-09-27T09:58:02.469Z,43.86
2022-09-27T10:00:31.816Z,43.58
2022-09-27T10:03:00.527Z,43.62
2022-09-27T10:05:28.864Z,43.43
2022-09-27T10:07:58.764Z,42.97
2022-09-27T10:10:26.731Z,43.06
2022-09-27T10:12:54.705Z,42.74
2022-09-27T10:15:23.525Z,42.55
2022-09-27T10:17:54.052Z,42.54
2022-09-27T10:20:27.402Z,42.40
2022-09-27T10:22:56.676Z,42.48
2022-09-27T10:25:24.873Z,42.76
2022-09-27T10:27:54.324Z,42.77
2022-09-27T10:30:27.681Z,42.65
2022-09-27T10:32:59.032Z,42.64
2022-09-27T10:35:36.849Z,42.51
2022-09-27T10:38:25.322Z,42.06
2022-09-27T10:40:55.565Z,42.15
2022-09-27T10:43:29.659Z,42.13
2022-09-27T10:46:02.969Z,42.08
2022-09-27T10:48:32.383Z,42.32
2022-09-27T10:51:01.226Z,42.34
2022-09-27T10:53:29.173Z,42.33
2022-09-27T10:55:57.774Z,42.22
2022-09-27T10:58:28.245Z,42.28
2022-09-27T11:00:57.794Z,41.89
2022-09-27T11:03:28.998Z,42.31
2022-09-27T11:05:59.571Z,43.62
2022-09-27T11:08:32.159Z,44.15
2022-09-27T11:11:07.846Z,44.31
2022-09-27T11:13:36.131Z,45.03
2022-09-27T11:16:27.226Z,45.12
2022-09-27T11:19:01.176Z,45.22
2022-09-27T11:21:35.220Z,45.68
2022-09-27T11:24:10.967Z,45.87
2022-09-27T11:26:45.401Z,45.73
2022-09-27T11:29:21.905Z,45.56
2022-09-27T11:31:55.078Z,45.49
2022-09-27T11:34:36.515Z,45.26
2022-09-27T11:37:11.517Z,45.47
2022-09-27T11:39:44.469Z,45.60
2022-09-27T11:42:24.663Z,45.12
2022-09-27T11:45:27.791Z,44.49
2022-09-27T11:47:51.600Z,44.78
2022-09-27T11:50:33.924Z,45.24
2022-09-27T11:53:11.492Z,45.43
2022-09-27T11:55:46.214Z,45.87
2022-09-27T11:58:18.885Z,46.05
2022-09-27T12:00:55.305Z,46.06
2022-09-27T12:03:56.520Z,46.52
2022-09-27T12:06:26.711Z,46.55
2022-09-27T12:09:02.829Z,46.79
2022-09-27T12:11:32.518Z,46.23
2022-09-27T12:14:01.136Z,46.00
2022-09-27T12:16:30.154Z,45.59
2022-09-27T12:18:58.807Z,46.20
2022-09-27T12:21:26.649Z,46.42
2022-09-27T12:23:55.425Z,47.60
2022-09-27T12:26:27.012Z,48.45
2022-09-27T12:28:56.951Z,49.02
2022-09-27T12:31:29.716Z,49.24
2022-09-27T12:34:02.891Z,49.36
2022-09-27T12:36:38.394Z,49.80
2022-09-27T12:39:12.172Z,49.79
2022-09-27T12:41:44.016Z,50.29
2022-09-27T12:44:12.112Z,50.79
2022-09-27T12:46:45.686Z,51.32
2022-09-27T12:49:15.748Z,51.39
2022-09-27T12:51:46.170Z,51.31
2022-09-27T12:54:31.542Z,51.67
2022-09-27T12:57:04.291Z,51.48
2022-09-27T12:59:41.675Z,51.77
2022-09-27T13:02:21.719Z,51.79
2022-09-27T13:05:00.419Z,51.51
2022-09-27T13:07:35.869Z,51.75
2022-09-27T13:10:17.346Z,51.74
2022-09-27T13:12:50.187Z,51.81
2022-09-27T13:15:29.027Z,51.46
2022-09-27T13:17:58.347Z,51.19
2022-09-27T13:20:53.268Z,50.98
2022-09-27T13:24:00.817Z,50.88
2022-09-27T13:26:50.862Z,50.89
2022-09-27T13:29:30.361Z,51.08
2022-09-27T13:32:22.608Z,51.29
2022-09-27T13:34:51.985Z,51.40
2022-09-27T13:37:45.608Z,51.79
2022-09-27T13:40:24.263Z,52.03
2022-09-27T13:43:06.684Z,52.42
2022-09-27T13:45:37.836Z,52.74
2022-09-27T13:48:10.097Z,52.88
2022-09-27T13:50:40.340Z,52.93
2022-09-27T13:53:09.406Z,52.82
2022-09-27T13:55:45.681Z,53.44
2022-09-27T13:58:34.478Z,53.53
2022-09-27T14:01:05.363Z,53.72
2022-09-27T14:03:35.660Z,53.67
2022-09-27T14:06:08.608Z,54.26
2022-09-27T14:08:40.058Z,54.70
2022-09-27T14:11:12.337Z,54.58
2022-09-27T14:13:40.426Z,54.74
2022-09-27T14:16:11.014Z,54.85
2022-09-27T14:18:44.730Z,54.90
2022-09-27T14:21:18.645Z,55.41
2022-09-27T14:23:46.656Z,55.35
2022-09-27T14:26:25.985Z,55.45
2022-09-27T14:28:53.987Z,55.49
2022-09-27T14:31:24.422Z,55.52
2022-09-27T14:33:52.546Z,55.34
2022-09-27T14:36:44.033Z,55.72
2022-09-27T14:39:23.006Z,55.51
2022-09-27T14:41:51.018Z,55.98
2022-09-27T14:44:19.543Z,55.92
2022-09-27T14:46:48.995Z,56.21
2022-09-27T14:49:22.289Z,56.75
2022-09-27T14:51:52.471Z,56.67
2022-09-27T14:54:22.252Z,56.96
2022-09-27T14:56:53.623Z,56.55
2022-09-27T14:59:27.186Z,56.99
2022-09-27T15:01:56.481Z,57.11
2022-09-27T15:04:24.677Z,57.40
2022-09-27T15:06:52.712Z,57.71
2022-09-27T15:09:20.673Z,57.77
2022-09-27T15:11:51.659Z,58.06
2022-09-27T15:14:20.392Z,57.93
2022-09-27T15:16:48.516Z,58.13
2022-09-27T15:19:18.964Z,58.28
2022-09-27T15:21:47.087Z,58.35
2022-09-27T15:24:40.600Z,58.34
2022-09-27T15:27:15.050Z,58.13
2022-09-27T15:29:43.176Z,58.70
2022-09-27T15:32:15.769Z,58.43
2022-09-27T15:34:45.127Z,58.60
2022-09-27T15:37:26.134Z,58.44
2022-09-27T15:39:54.089Z,59.06
2022-09-27T15:42:22.082Z,59.02
2022-09-27T15:44:50.555Z,59.27
2022-09-27T15:47:58.366Z,59.58
2022-09-27T15:50:38.619Z,59.63
2022-09-27T15:53:07.071Z,60.04
2022-09-27T15:55:37.213Z,59.89
2022-09-27T15:58:07.725Z,59.74
2022-09-27T16:00:36.070Z,59.66
2022-09-27T16:03:04.195Z,60.04
2022-09-27T16:05:33.304Z,60.04
2022-09-27T16:08:02.958Z,60.17
2022-09-27T16:10:33.873Z,59.71
2022-09-27T16:13:01.857Z,59.96
2022-09-27T16:15:29.817Z,59.68
2022-09-27T16:17:57.895Z,59.76
2022-09-27T16:20:27.185Z,59.51
2022-09-27T16:22:55.521Z,59.54
2022-09-27T16:25:24.882Z,59.73
2022-09-27T16:27:53.753Z,59.61
2022-09-27T16:30:21.801Z,59.63
2022-09-27T16:32:49.761Z,59.36
2022-09-27T16:35:18.885Z,59.56
2022-09-27T16:37:46.975Z,59.46
2022-09-27T16:40:15.375Z,59.58
2022-09-27T16:42:44.786Z,59.58
2022-09-27T16:45:18.234Z,59.79
2022-09-27T16:47:46.974Z,59.70
2022-09-27T16:50:32.304Z,59.58
2022-09-27T16:53:00.399Z,60.00
2022-09-27T16:55:28.854Z,59.88
2022-09-27T16:58:00.734Z,59.92
2022-09-27T17:00:28.954Z,59.98
2022-09-27T17:02:56.888Z,59.99
2022-09-27T17:05:25.290Z,59.87
2022-09-27T17:07:53.351Z,59.85
2022-09-27T17:10:21.262Z,59.60
2022-09-27T17:12:49.374Z,59.73
2022-09-27T17:15:18.765Z,59.39
2022-09-27T17:17:50.061Z,59.24
2022-09-27T17:20:18.206Z,59.17
2022-09-27T17:22:46.139Z,58.63
2022-09-27T17:25:14.071Z,58.91
2022-09-27T17:27:42.008Z,58.15
2022-09-27T17:30:10.889Z,58.30
2022-09-27T17:32:40.297Z,57.94
2022-09-27T17:35:09.430Z,57.94
2022-09-27T17:37:37.376Z,57.48
2022-09-27T17:40:06.020Z,57.44
2022-09-27T17:42:34.440Z,57.62
2022-09-27T17:45:02.367Z,57.52
2022-09-27T17:47:47.774Z,57.66
2022-09-27T17:50:27.165Z,57.52
2022-09-27T17:52:55.100Z,57.69
2022-09-27T17:55:23.058Z,57.70
2022-09-27T17:57:51.409Z,57.64
2022-09-27T18:00:20.320Z,57.35
2022-09-27T18:02:48.919Z,57.58
2022-09-27T18:05:21.306Z,57.67
2022-09-27T18:07:50.006Z,57.49
2022-09-27T18:10:18.736Z,57.23
2022-09-27T18:12:47.496Z,57.69
2022-09-27T18:15:17.054Z,57.76
2022-09-27T18:17:45.881Z,58.14
2022-09-27T18:20:13.820Z,58.14
2022-09-27T18:22:43.089Z,58.18
2022-09-27T18:25:12.034Z,58.23
2022-09-27T18:27:40.433Z,58.25
2022-09-27T18:30:09.741Z,58.20
2022-09-27T18:32:37.612Z,58.07
2022-09-27T18:35:07.002Z,58.18
2022-09-27T18:37:35.032Z,57.84
2022-09-27T18:40:04.578Z,57.72
2022-09-27T18:42:32.546Z,57.87
2022-09-27T18:45:00.454Z,58.23
2022-09-27T18:47:28.435Z,57.80
2022-09-27T18:49:56.383Z,58.12
2022-09-27T18:52:24.363Z,58.07
2022-09-27T18:54:52.303Z,57.94
2022-09-27T18:57:22.954Z,57.83
2022-09-27T18:59:50.850Z,58.17
2022-09-27T19:02:19.532Z,58.02
2022-09-27T19:04:47.542Z,58.21
2022-09-27T19:07:15.510Z,58.09
2022-09-27T19:09:43.436Z,57.90
2022-09-27T19:12:11.509Z,57.52
2022-09-27T19:14:41.172Z,57.57
2022-09-27T19:17:09.146Z,57.43
2022-09-27T19:19:37.093Z,57.44
2022-09-27T19:22:05.663Z,57.06
2022-09-27T19:24:33.543Z,57.19
2022-09-27T19:27:01.544Z,57.34
2022-09-27T19:29:29.594Z,57.22
2022-09-27T19:31:58.883Z,56.69
2022-09-27T19:34:26.976Z,57.14
2022-09-27T19:36:55.384Z,56.70
2022-09-27T19:39:23.309Z,56.76
2022-09-27T19:41:51.341Z,56.74
2022-09-27T19:44:19.304Z,56.84
2022-09-27T19:46:47.334Z,56.97
2022-09-27T19:49:18.889Z,56.68
2022-09-27T19:51:46.942Z,56.78
2022-09-27T19:54:15.113Z,56.82
2022-09-27T19:56:43.093Z,57.23
2022-09-27T19:59:11.909Z,56.83
2022-09-27T20:01:41.333Z,56.75
2022-09-27T20:04:09.339Z,56.66
2022-09-27T20:06:38.656Z,56.73
2022-09-27T20:09:06.607Z,56.75
2022-09-27T20:11:34.848Z,56.58
2022-09-27T20:14:02.805Z,56.74
2022-09-27T20:16:30.799Z,56.44
2022-09-27T20:19:00.037Z,56.72
2022-09-27T20:21:28.840Z,56.47
2022-09-27T20:23:58.348Z,56.52
2022-09-27T20:26:27.160Z,56.44
2022-09-27T20:28:56.995Z,56.05
2022-09-27T20:31:25.865Z,56.02
2022-09-27T20:33:53.817Z,56.07
2022-09-27T20:36:22.930Z,55.98
2022-09-27T20:38:51.671Z,55.85
2022-09-27T20:41:21.778Z,56.00
2022-09-27T20:43:49.860Z,56.24
2022-09-27T20:46:18.634Z,56.13
2022-09-27T20:48:47.084Z,56.05
2022-09-27T20:51:15.319Z,56.26
2022-09-27T20:53:43.274Z,55.85
2022-09-27T20:56:17.053Z,55.70
2022-09-27T20:58:46.365Z,55.64
2022-09-27T21:01:14.387Z,55.89
2022-09-27T21:03:42.321Z,55.92
2022-09-27T21:06:10.266Z,55.68
2022-09-27T21:08:38.177Z,55.65
2022-09-27T21:11:08.268Z,55.92
2022-09-27T21:13:36.464Z,55.60
2022-09-27T21:16:06.226Z,55.59
2022-09-27T21:18:34.240Z,55.47
2022-09-27T21:21:03.732Z,55.57
2022-09-27T21:23:31.766Z,55.38
2022-09-27T21:26:04.770Z,55.25
2022-09-27T21:28:34.397Z,55.08
2022-09-27T21:31:08.483Z,55.04
2022-09-27T21:33:36.489Z,55.33
2022-09-27T21:36:04.747Z,55.03
2022-09-27T21:38:32.753Z,54.99
2022-09-27T21:41:01.853Z,54.90
2022-09-27T21:43:30.685Z,54.92
2022-09-27T21:46:07.132Z,54.62
2022-09-27T21:48:35.236Z,54.90
2022-09-27T21:51:05.494Z,55.00
2022-09-27T21:53:33.667Z,54.88
2022-09-27T21:56:01.969Z,54.54
2022-09-27T21:58:29.944Z,54.70
2022-09-27T22:00:57.858Z,54.64
2022-09-27T22:03:27.216Z,54.53
2022-09-27T22:05:55.140Z,54.28
2022-09-27T22:08:24.150Z,54.22
2022-09-27T22:10:52.147Z,54.42
2022-09-27T22:13:20.027Z,54.36
2022-09-27T22:15:50.431Z,54.22
2022-09-27T22:18:18.439Z,54.31
2022-09-27T22:20:47.799Z,54.19
2022-09-27T22:23:15.731Z,54.17
2022-09-27T22:25:43.666Z,53.91
2022-09-27T22:28:11.593Z,54.00
2022-09-27T22:30:39.538Z,54.34
2022-09-27T22:33:07.686Z,53.82
2022-09-27T22:35:35.579Z,54.17
2022-09-27T22:38:04.881Z,53.90
2022-09-27T22:40:32.809Z,53.69
2022-09-27T22:43:00.717Z,53.92
2022-09-27T22:45:28.648Z,53.63
2022-09-27T22:47:56.658Z,53.61
2022-09-27T22:50:24.691Z,53.49
2022-09-27T22:52:52.567Z,53.70
2022-09-27T22:55:21.824Z,53.42
2022-09-27T22:57:49.704Z,53.72
2022-09-27T23:00:17.644Z,53.25
2022-09-27T23:02:46.028Z,53.63
2022-09-27T23:05:13.937Z,53.37
2022-09-27T23:07:41.903Z,53.29
2022-09-27T23:10:10.227Z,53.14
2022-09-27T23:12:39.528Z,53.41
2022-09-27T23:15:08.828Z,52.93
2022-09-27T23:17:36.711Z,53.02
2022-09-27T23:20:05.020Z,53.10
2022-09-27T23:22:33.405Z,53.18
2022-09-27T23:25:01.918Z,52.89
2022-09-27T23:27:45.275Z,52.96
2022-09-27T23:30:15.231Z,53.25
2022-09-27T23:32:44.828Z,53.27
2022-09-27T23:35:12.814Z,52.73
2022-09-27T23:37:40.744Z,52.73
2022-09-27T23:40:09.988Z,53.13
2022-09-27T23:42:37.865Z,52.75
2022-09-27T23:45:06.626Z,52.93
2022-09-27T23:47:35.859Z,52.73
2022-09-27T23:50:03.841Z,52.89
2022-09-27T23:52:31.756Z,52.57
2022-09-27T23:54:59.723Z,52.51
2022-09-27T23:57:27.705Z,52.80
2022-09-27T23:59:55.598Z,52.41
